sensor_id;sensor_type;location;lat;lon;timestamp;temperature;humidity
5164;DHT22;2601;50.224;10.126;2023-05-09T00:00:47;17.90;99.90
5164;DHT22;2601;50.224;10.126;2023-05-09T00:03:13;17.90;99.90
5164;DHT22;2601;50.224;10.126;2023-05-09T00:05:39;17.90;99.90
5164;DHT22;2601;50.224;10.126;2023-05-09T00:08:05;17.90;99.90
5164;DHT22;2601;50.224;10.126;2023-05-09T00:10:31;17.90;99.90
5164;DHT22;2601;50.224;10.126;2023-05-09T00:12:56;17.90;99.90
5164;DHT22;2601;50.224;10.126;2023-05-09T00:15:23;17.90;99.90
5164;DHT22;2601;50.224;10.126;2023-05-09T00:17:50;17.90;99.90
5164;DHT22;2601;50.224;10.126;2023-05-09T00:20:16;17.90;99.90
5164;DHT22;2601;50.224;10.126;2023-05-09T00:22:41;17.90;99.90
5164;DHT22;2601;50.224;10.126;2023-05-09T00:25:08;17.90;99.90
5164;DHT22;2601;50.224;10.126;2023-05-09T00:27:34;17.90;99.90
5164;DHT22;2601;50.224;10.126;2023-05-09T00:30:00;17.90;99.90
5164;DHT22;2601;50.224;10.126;2023-05-09T00:32:25;17.90;99.90
5164;DHT22;2601;50.224;10.126;2023-05-09T00:34:53;17.90;99.90
5164;DHT22;2601;50.224;10.126;2023-05-09T00:37:18;17.90;99.90
5164;DHT22;2601;50.224;10.126;2023-05-09T00:39:46;17.90;99.90
5164;DHT22;2601;50.224;10.126;2023-05-09T00:42:11;17.90;99.90
5164;DHT22;2601;50.224;10.126;2023-05-09T00:44:37;17.90;99.80
5164;DHT22;2601;50.224;10.126;2023-05-09T00:47:03;17.90;99.70
5164;DHT22;2601;50.224;10.126;2023-05-09T00:49:28;17.90;99.50
5164;DHT22;2601;50.224;10.126;2023-05-09T00:51:55;17.90;99.30
5164;DHT22;2601;50.224;10.126;2023-05-09T00:54:21;17.90;99.20
5164;DHT22;2601;50.224;10.126;2023-05-09T00:56:47;17.90;99.60
5164;DHT22;2601;50.224;10.126;2023-05-09T00:59:12;17.90;99.60
5164;DHT22;2601;50.224;10.126;2023-05-09T01:01:38;17.90;99.70
5164;DHT22;2601;50.224;10.126;2023-05-09T01:04:03;17.90;99.70
5164;DHT22;2601;50.224;10.126;2023-05-09T01:09:24;17.90;99.50
5164;DHT22;2601;50.224;10.126;2023-05-09T01:14:56;17.90;99.70
5164;DHT22;2601;50.224;10.126;2023-05-09T01:17:39;17.90;99.60
5164;DHT22;2601;50.224;10.126;2023-05-09T01:22:44;17.90;99.90
5164;DHT22;2601;50.224;10.126;2023-05-09T01:25:19;17.90;99.90
5164;DHT22;2601;50.224;10.126;2023-05-09T01:28:13;17.90;99.80
5164;DHT22;2601;50.224;10.126;2023-05-09T01:30:44;17.90;99.90
5164;DHT22;2601;50.224;10.126;2023-05-09T01:33:14;17.90;99.80
5164;DHT22;2601;50.224;10.126;2023-05-09T01:35:44;17.90;99.90
5164;DHT22;2601;50.224;10.126;2023-05-09T01:38:14;17.90;99.90
5164;DHT22;2601;50.224;10.126;2023-05-09T01:40:42;17.90;99.60
5164;DHT22;2601;50.224;10.126;2023-05-09T01:43:10;17.90;99.70
5164;DHT22;2601;50.224;10.126;2023-05-09T01:45:38;17.90;99.60
5164;DHT22;2601;50.224;10.126;2023-05-09T01:48:06;17.90;99.70
5164;DHT22;2601;50.224;10.126;2023-05-09T01:50:34;17.90;99.60
5164;DHT22;2601;50.224;10.126;2023-05-09T01:53:00;17.90;98.90
5164;DHT22;2601;50.224;10.126;2023-05-09T01:55:29;17.90;98.90
5164;DHT22;2601;50.224;10.126;2023-05-09T01:57:56;17.90;99.00
5164;DHT22;2601;50.224;10.126;2023-05-09T02:00:23;17.90;98.70
5164;DHT22;2601;50.224;10.126;2023-05-09T02:02:50;17.90;98.00
5164;DHT22;2601;50.224;10.126;2023-05-09T02:05:16;17.90;98.00
5164;DHT22;2601;50.224;10.126;2023-05-09T02:07:43;17.90;98.00
5164;DHT22;2601;50.224;10.126;2023-05-09T02:10:11;17.90;97.70
5164;DHT22;2601;50.224;10.126;2023-05-09T02:12:37;17.90;97.70
5164;DHT22;2601;50.224;10.126;2023-05-09T02:15:04;17.90;97.70
5164;DHT22;2601;50.224;10.126;2023-05-09T02:17:29;17.90;97.70
5164;DHT22;2601;50.224;10.126;2023-05-09T02:19:55;17.90;97.70
5164;DHT22;2601;50.224;10.126;2023-05-09T02:22:21;17.90;97.40
5164;DHT22;2601;50.224;10.126;2023-05-09T02:24:47;17.90;97.30
5164;DHT22;2601;50.224;10.126;2023-05-09T02:27:13;17.90;97.30
5164;DHT22;2601;50.224;10.126;2023-05-09T02:29:43;17.90;97.20
5164;DHT22;2601;50.224;10.126;2023-05-09T02:32:14;17.90;97.10
5164;DHT22;2601;50.224;10.126;2023-05-09T02:34:41;17.90;97.10
5164;DHT22;2601;50.224;10.126;2023-05-09T02:37:08;17.90;97.10
5164;DHT22;2601;50.224;10.126;2023-05-09T02:39:34;17.90;97.00
5164;DHT22;2601;50.224;10.126;2023-05-09T02:42:09;17.90;96.90
5164;DHT22;2601;50.224;10.126;2023-05-09T02:44:35;17.90;96.90
5164;DHT22;2601;50.224;10.126;2023-05-09T02:47:02;17.90;97.00
5164;DHT22;2601;50.224;10.126;2023-05-09T02:49:27;17.90;97.00
5164;DHT22;2601;50.224;10.126;2023-05-09T02:51:53;17.90;97.10
5164;DHT22;2601;50.224;10.126;2023-05-09T02:54:19;17.90;96.80
5164;DHT22;2601;50.224;10.126;2023-05-09T02:56:44;17.90;96.80
5164;DHT22;2601;50.224;10.126;2023-05-09T02:59:10;17.90;96.70
5164;DHT22;2601;50.224;10.126;2023-05-09T03:01:35;17.90;96.60
5164;DHT22;2601;50.224;10.126;2023-05-09T03:04:01;17.90;96.70
5164;DHT22;2601;50.224;10.126;2023-05-09T03:06:26;17.90;96.70
5164;DHT22;2601;50.224;10.126;2023-05-09T03:08:52;17.90;96.70
5164;DHT22;2601;50.224;10.126;2023-05-09T03:11:18;17.90;96.70
5164;DHT22;2601;50.224;10.126;2023-05-09T03:13:43;17.90;96.80
5164;DHT22;2601;50.224;10.126;2023-05-09T03:16:12;17.90;96.80
5164;DHT22;2601;50.224;10.126;2023-05-09T03:18:38;17.90;96.90
5164;DHT22;2601;50.224;10.126;2023-05-09T03:21:04;17.90;96.80
5164;DHT22;2601;50.224;10.126;2023-05-09T03:23:30;17.90;96.80
5164;DHT22;2601;50.224;10.126;2023-05-09T03:25:55;17.90;96.60
5164;DHT22;2601;50.224;10.126;2023-05-09T03:28:21;17.90;96.60
5164;DHT22;2601;50.224;10.126;2023-05-09T03:30:46;17.90;96.50
5164;DHT22;2601;50.224;10.126;2023-05-09T03:33:12;17.90;96.50
5164;DHT22;2601;50.224;10.126;2023-05-09T03:35:37;17.90;96.60
5164;DHT22;2601;50.224;10.126;2023-05-09T03:38:03;17.90;96.40
5164;DHT22;2601;50.224;10.126;2023-05-09T03:40:29;17.90;96.50
5164;DHT22;2601;50.224;10.126;2023-05-09T03:42:54;17.90;96.50
5164;DHT22;2601;50.224;10.126;2023-05-09T03:45:20;17.90;96.50
5164;DHT22;2601;50.224;10.126;2023-05-09T03:47:45;17.90;96.40
5164;DHT22;2601;50.224;10.126;2023-05-09T03:50:11;17.90;96.40
5164;DHT22;2601;50.224;10.126;2023-05-09T03:52:37;17.90;96.40
5164;DHT22;2601;50.224;10.126;2023-05-09T03:55:03;17.90;96.40
5164;DHT22;2601;50.224;10.126;2023-05-09T03:57:29;17.90;96.30
5164;DHT22;2601;50.224;10.126;2023-05-09T03:59:54;17.90;96.40
5164;DHT22;2601;50.224;10.126;2023-05-09T04:02:20;17.90;96.30
5164;DHT22;2601;50.224;10.126;2023-05-09T04:04:46;17.90;96.40
5164;DHT22;2601;50.224;10.126;2023-05-09T04:07:11;17.90;96.30
5164;DHT22;2601;50.224;10.126;2023-05-09T04:09:37;17.90;96.40
5164;DHT22;2601;50.224;10.126;2023-05-09T04:12:03;17.90;96.30
5164;DHT22;2601;50.224;10.126;2023-05-09T04:14:28;17.90;96.40
5164;DHT22;2601;50.224;10.126;2023-05-09T04:16:54;17.90;96.40
5164;DHT22;2601;50.224;10.126;2023-05-09T04:19:19;17.90;96.20
5164;DHT22;2601;50.224;10.126;2023-05-09T04:21:45;17.90;96.40
5164;DHT22;2601;50.224;10.126;2023-05-09T04:24:11;17.90;96.30
5164;DHT22;2601;50.224;10.126;2023-05-09T04:26:36;17.90;96.20
5164;DHT22;2601;50.224;10.126;2023-05-09T04:29:03;17.90;96.20
5164;DHT22;2601;50.224;10.126;2023-05-09T04:31:29;17.90;96.30
5164;DHT22;2601;50.224;10.126;2023-05-09T04:33:55;17.90;96.30
5164;DHT22;2601;50.224;10.126;2023-05-09T04:36:22;17.90;96.20
5164;DHT22;2601;50.224;10.126;2023-05-09T04:38:48;17.90;96.10
5164;DHT22;2601;50.224;10.126;2023-05-09T04:41:14;17.90;96.10
5164;DHT22;2601;50.224;10.126;2023-05-09T04:43:40;17.90;96.30
5164;DHT22;2601;50.224;10.126;2023-05-09T04:46:06;17.90;96.20
5164;DHT22;2601;50.224;10.126;2023-05-09T04:48:34;17.90;96.00
5164;DHT22;2601;50.224;10.126;2023-05-09T04:50:59;17.90;95.80
5164;DHT22;2601;50.224;10.126;2023-05-09T04:53:25;17.90;95.80
5164;DHT22;2601;50.224;10.126;2023-05-09T04:55:53;17.90;95.70
5164;DHT22;2601;50.224;10.126;2023-05-09T04:58:19;17.90;95.70
5164;DHT22;2601;50.224;10.126;2023-05-09T05:00:44;17.90;95.80
5164;DHT22;2601;50.224;10.126;2023-05-09T05:03:11;17.90;95.90
5164;DHT22;2601;50.224;10.126;2023-05-09T05:05:36;17.90;95.90
5164;DHT22;2601;50.224;10.126;2023-05-09T05:08:02;17.90;96.00
5164;DHT22;2601;50.224;10.126;2023-05-09T05:10:28;17.90;96.20
5164;DHT22;2601;50.224;10.126;2023-05-09T05:12:54;17.90;96.10
5164;DHT22;2601;50.224;10.126;2023-05-09T05:15:20;17.90;95.90
5164;DHT22;2601;50.224;10.126;2023-05-09T05:17:46;17.90;95.70
5164;DHT22;2601;50.224;10.126;2023-05-09T05:20:11;17.90;95.70
5164;DHT22;2601;50.224;10.126;2023-05-09T05:22:37;17.90;95.70
5164;DHT22;2601;50.224;10.126;2023-05-09T05:25:03;17.90;95.60
5164;DHT22;2601;50.224;10.126;2023-05-09T05:27:29;17.90;95.60
5164;DHT22;2601;50.224;10.126;2023-05-09T05:29:55;17.90;95.40
5164;DHT22;2601;50.224;10.126;2023-05-09T05:32:21;17.90;95.60
5164;DHT22;2601;50.224;10.126;2023-05-09T05:34:46;17.90;95.40
5164;DHT22;2601;50.224;10.126;2023-05-09T05:37:12;17.90;95.30
5164;DHT22;2601;50.224;10.126;2023-05-09T05:39:37;17.90;95.50
5164;DHT22;2601;50.224;10.126;2023-05-09T05:42:03;17.90;95.40
5164;DHT22;2601;50.224;10.126;2023-05-09T05:44:28;17.90;95.30
5164;DHT22;2601;50.224;10.126;2023-05-09T05:46:54;17.90;95.30
5164;DHT22;2601;50.224;10.126;2023-05-09T05:49:19;17.90;95.30
5164;DHT22;2601;50.224;10.126;2023-05-09T05:51:45;17.90;95.30
5164;DHT22;2601;50.224;10.126;2023-05-09T05:54:10;17.90;95.60
5164;DHT22;2601;50.224;10.126;2023-05-09T05:56:36;17.90;95.30
5164;DHT22;2601;50.224;10.126;2023-05-09T05:59:01;17.90;95.30
5164;DHT22;2601;50.224;10.126;2023-05-09T06:01:27;17.90;95.20
5164;DHT22;2601;50.224;10.126;2023-05-09T06:03:53;17.90;95.20
5164;DHT22;2601;50.224;10.126;2023-05-09T06:06:21;17.90;95.30
5164;DHT22;2601;50.224;10.126;2023-05-09T06:08:47;17.90;95.40
5164;DHT22;2601;50.224;10.126;2023-05-09T06:11:16;17.90;95.50
5164;DHT22;2601;50.224;10.126;2023-05-09T06:13:42;17.90;95.60
5164;DHT22;2601;50.224;10.126;2023-05-09T06:16:08;17.90;95.30
5164;DHT22;2601;50.224;10.126;2023-05-09T06:18:37;17.90;95.30
5164;DHT22;2601;50.224;10.126;2023-05-09T06:21:05;17.90;95.20
5164;DHT22;2601;50.224;10.126;2023-05-09T06:23:31;17.90;95.20
5164;DHT22;2601;50.224;10.126;2023-05-09T06:25:57;17.90;95.20
5164;DHT22;2601;50.224;10.126;2023-05-09T06:28:23;17.90;95.20
5164;DHT22;2601;50.224;10.126;2023-05-09T06:30:48;17.90;95.10
5164;DHT22;2601;50.224;10.126;2023-05-09T06:33:14;17.90;95.20
5164;DHT22;2601;50.224;10.126;2023-05-09T06:35:40;17.90;95.20
5164;DHT22;2601;50.224;10.126;2023-05-09T06:38:05;17.90;95.10
5164;DHT22;2601;50.224;10.126;2023-05-09T06:40:31;17.90;95.10
5164;DHT22;2601;50.224;10.126;2023-05-09T06:42:57;17.90;95.20
5164;DHT22;2601;50.224;10.126;2023-05-09T06:45:22;17.90;95.20
5164;DHT22;2601;50.224;10.126;2023-05-09T06:47:48;17.90;95.10
5164;DHT22;2601;50.224;10.126;2023-05-09T06:50:13;17.90;95.10
5164;DHT22;2601;50.224;10.126;2023-05-09T06:52:39;17.90;95.10
5164;DHT22;2601;50.224;10.126;2023-05-09T06:55:05;17.90;95.20
5164;DHT22;2601;50.224;10.126;2023-05-09T06:57:31;17.90;95.20
5164;DHT22;2601;50.224;10.126;2023-05-09T06:59:56;17.90;95.10
5164;DHT22;2601;50.224;10.126;2023-05-09T07:02:22;17.90;95.10
5164;DHT22;2601;50.224;10.126;2023-05-09T07:04:47;17.90;95.10
5164;DHT22;2601;50.224;10.126;2023-05-09T07:07:13;17.90;95.10
5164;DHT22;2601;50.224;10.126;2023-05-09T07:09:39;17.90;95.20
5164;DHT22;2601;50.224;10.126;2023-05-09T07:12:04;17.90;95.10
5164;DHT22;2601;50.224;10.126;2023-05-09T07:14:30;17.80;95.10
5164;DHT22;2601;50.224;10.126;2023-05-09T07:16:55;17.90;95.20
5164;DHT22;2601;50.224;10.126;2023-05-09T07:19:21;17.90;95.50
5164;DHT22;2601;50.224;10.126;2023-05-09T07:21:46;17.90;95.10
5164;DHT22;2601;50.224;10.126;2023-05-09T07:24:12;17.90;95.20
5164;DHT22;2601;50.224;10.126;2023-05-09T07:26:38;17.80;95.10
5164;DHT22;2601;50.224;10.126;2023-05-09T07:29:03;17.90;95.30
5164;DHT22;2601;50.224;10.126;2023-05-09T07:31:29;17.90;95.30
5164;DHT22;2601;50.224;10.126;2023-05-09T07:33:54;17.90;95.40
5164;DHT22;2601;50.224;10.126;2023-05-09T07:36:20;17.90;95.50
5164;DHT22;2601;50.224;10.126;2023-05-09T07:38:45;17.90;95.70
5164;DHT22;2601;50.224;10.126;2023-05-09T07:41:17;17.90;95.80
5164;DHT22;2601;50.224;10.126;2023-05-09T07:43:42;17.90;95.90
5164;DHT22;2601;50.224;10.126;2023-05-09T07:46:08;17.90;95.80
5164;DHT22;2601;50.224;10.126;2023-05-09T07:48:34;17.90;95.80
5164;DHT22;2601;50.224;10.126;2023-05-09T07:50:59;17.90;95.80
5164;DHT22;2601;50.224;10.126;2023-05-09T07:53:25;17.90;95.70
5164;DHT22;2601;50.224;10.126;2023-05-09T07:55:51;17.90;95.70
5164;DHT22;2601;50.224;10.126;2023-05-09T07:58:17;17.90;95.60
5164;DHT22;2601;50.224;10.126;2023-05-09T08:00:42;17.90;95.60
5164;DHT22;2601;50.224;10.126;2023-05-09T08:03:08;17.90;95.60
5164;DHT22;2601;50.224;10.126;2023-05-09T08:05:33;17.90;95.60
5164;DHT22;2601;50.224;10.126;2023-05-09T08:07:59;17.90;95.60
5164;DHT22;2601;50.224;10.126;2023-05-09T08:10:24;17.90;95.60
5164;DHT22;2601;50.224;10.126;2023-05-09T08:12:53;17.90;95.50
5164;DHT22;2601;50.224;10.126;2023-05-09T08:15:18;17.90;95.40
5164;DHT22;2601;50.224;10.126;2023-05-09T08:17:44;17.90;95.50
5164;DHT22;2601;50.224;10.126;2023-05-09T08:20:10;17.90;95.40
5164;DHT22;2601;50.224;10.126;2023-05-09T08:22:38;17.90;95.40
5164;DHT22;2601;50.224;10.126;2023-05-09T08:25:04;17.90;95.40
5164;DHT22;2601;50.224;10.126;2023-05-09T08:27:30;17.90;95.40
5164;DHT22;2601;50.224;10.126;2023-05-09T08:29:55;17.90;95.40
5164;DHT22;2601;50.224;10.126;2023-05-09T08:32:21;17.90;95.40
5164;DHT22;2601;50.224;10.126;2023-05-09T08:34:46;17.90;95.40
5164;DHT22;2601;50.224;10.126;2023-05-09T08:37:12;17.90;95.40
5164;DHT22;2601;50.224;10.126;2023-05-09T08:39:37;17.90;95.30
5164;DHT22;2601;50.224;10.126;2023-05-09T08:42:03;17.90;95.30
5164;DHT22;2601;50.224;10.126;2023-05-09T08:44:29;17.90;95.30
5164;DHT22;2601;50.224;10.126;2023-05-09T08:46:59;17.90;95.30
5164;DHT22;2601;50.224;10.126;2023-05-09T08:49:25;17.90;95.20
5164;DHT22;2601;50.224;10.126;2023-05-09T08:51:52;17.90;95.00
5164;DHT22;2601;50.224;10.126;2023-05-09T08:54:18;17.90;95.00
5164;DHT22;2601;50.224;10.126;2023-05-09T08:56:45;17.90;94.90
5164;DHT22;2601;50.224;10.126;2023-05-09T08:59:11;17.90;95.00
5164;DHT22;2601;50.224;10.126;2023-05-09T09:01:38;17.90;95.00
5164;DHT22;2601;50.224;10.126;2023-05-09T09:04:06;17.90;94.90
5164;DHT22;2601;50.224;10.126;2023-05-09T09:06:35;17.90;94.90
5164;DHT22;2601;50.224;10.126;2023-05-09T09:09:02;17.90;94.90
5164;DHT22;2601;50.224;10.126;2023-05-09T09:11:36;17.90;94.90
5164;DHT22;2601;50.224;10.126;2023-05-09T09:14:11;17.90;94.90
5164;DHT22;2601;50.224;10.126;2023-05-09T09:16:39;17.90;94.90
5164;DHT22;2601;50.224;10.126;2023-05-09T09:19:16;17.90;94.90
5164;DHT22;2601;50.224;10.126;2023-05-09T09:21:44;17.90;94.80
5164;DHT22;2601;50.224;10.126;2023-05-09T09:24:17;17.90;94.70
5164;DHT22;2601;50.224;10.126;2023-05-09T09:26:47;17.90;94.70
5164;DHT22;2601;50.224;10.126;2023-05-09T09:29:13;17.90;94.60
5164;DHT22;2601;50.224;10.126;2023-05-09T09:31:43;17.90;94.40
5164;DHT22;2601;50.224;10.126;2023-05-09T09:34:09;17.90;94.40
5164;DHT22;2601;50.224;10.126;2023-05-09T09:36:34;17.90;94.60
5164;DHT22;2601;50.224;10.126;2023-05-09T09:39:04;17.90;94.70
5164;DHT22;2601;50.224;10.126;2023-05-09T09:41:34;17.90;94.70
5164;DHT22;2601;50.224;10.126;2023-05-09T09:44:19;17.90;94.80
5164;DHT22;2601;50.224;10.126;2023-05-09T09:46:46;17.90;94.80
5164;DHT22;2601;50.224;10.126;2023-05-09T09:49:13;17.90;94.90
5164;DHT22;2601;50.224;10.126;2023-05-09T09:51:43;17.90;94.90
5164;DHT22;2601;50.224;10.126;2023-05-09T09:54:10;17.90;94.90
5164;DHT22;2601;50.224;10.126;2023-05-09T09:56:49;17.90;94.90
5164;DHT22;2601;50.224;10.126;2023-05-09T09:59:17;17.90;94.90
5164;DHT22;2601;50.224;10.126;2023-05-09T10:02:03;17.90;94.90
5164;DHT22;2601;50.224;10.126;2023-05-09T10:04:31;17.90;94.90
5164;DHT22;2601;50.224;10.126;2023-05-09T10:06:59;17.90;95.00
5164;DHT22;2601;50.224;10.126;2023-05-09T10:09:26;17.90;95.00
5164;DHT22;2601;50.224;10.126;2023-05-09T10:11:52;17.90;95.00
5164;DHT22;2601;50.224;10.126;2023-05-09T10:14:22;17.90;95.00
5164;DHT22;2601;50.224;10.126;2023-05-09T10:16:50;17.90;95.00
5164;DHT22;2601;50.224;10.126;2023-05-09T10:19:20;17.90;94.90
5164;DHT22;2601;50.224;10.126;2023-05-09T10:21:52;17.90;94.90
5164;DHT22;2601;50.224;10.126;2023-05-09T10:25:02;17.90;94.80
5164;DHT22;2601;50.224;10.126;2023-05-09T10:27:30;17.90;94.80
5164;DHT22;2601;50.224;10.126;2023-05-09T10:32:44;17.90;94.80
5164;DHT22;2601;50.224;10.126;2023-05-09T10:35:12;17.90;94.90
5164;DHT22;2601;50.224;10.126;2023-05-09T10:37:38;17.90;94.90
5164;DHT22;2601;50.224;10.126;2023-05-09T10:40:05;17.90;94.90
5164;DHT22;2601;50.224;10.126;2023-05-09T10:42:31;17.90;94.80
5164;DHT22;2601;50.224;10.126;2023-05-09T10:44:57;17.90;94.80
5164;DHT22;2601;50.224;10.126;2023-05-09T10:47:26;17.90;94.80
5164;DHT22;2601;50.224;10.126;2023-05-09T10:49:52;17.90;94.80
5164;DHT22;2601;50.224;10.126;2023-05-09T10:52:20;17.90;94.70
5164;DHT22;2601;50.224;10.126;2023-05-09T10:54:58;17.90;94.80
5164;DHT22;2601;50.224;10.126;2023-05-09T10:57:25;17.90;94.90
5164;DHT22;2601;50.224;10.126;2023-05-09T10:59:54;17.90;94.90
5164;DHT22;2601;50.224;10.126;2023-05-09T11:02:20;17.90;94.90
5164;DHT22;2601;50.224;10.126;2023-05-09T11:04:46;17.90;94.90
5164;DHT22;2601;50.224;10.126;2023-05-09T11:07:23;17.90;94.90
5164;DHT22;2601;50.224;10.126;2023-05-09T11:09:51;17.90;94.90
5164;DHT22;2601;50.224;10.126;2023-05-09T11:12:19;17.90;94.90
5164;DHT22;2601;50.224;10.126;2023-05-09T11:14:49;17.90;94.90
5164;DHT22;2601;50.224;10.126;2023-05-09T11:22:24;17.90;95.00
5164;DHT22;2601;50.224;10.126;2023-05-09T11:25:09;17.90;95.00
5164;DHT22;2601;50.224;10.126;2023-05-09T11:27:50;17.90;95.00
5164;DHT22;2601;50.224;10.126;2023-05-09T11:30:18;17.90;95.10
5164;DHT22;2601;50.224;10.126;2023-05-09T11:32:52;17.90;95.00
5164;DHT22;2601;50.224;10.126;2023-05-09T11:35:21;17.90;95.00
5164;DHT22;2601;50.224;10.126;2023-05-09T11:37:58;17.90;95.00
5164;DHT22;2601;50.224;10.126;2023-05-09T11:40:25;17.90;95.00
5164;DHT22;2601;50.224;10.126;2023-05-09T11:42:53;17.90;95.00
5164;DHT22;2601;50.224;10.126;2023-05-09T11:45:19;17.90;95.10
5164;DHT22;2601;50.224;10.126;2023-05-09T11:47:46;17.90;95.00
5164;DHT22;2601;50.224;10.126;2023-05-09T11:50:13;17.90;94.90
5164;DHT22;2601;50.224;10.126;2023-05-09T11:52:39;17.90;95.00
5164;DHT22;2601;50.224;10.126;2023-05-09T11:55:13;17.90;95.00
5164;DHT22;2601;50.224;10.126;2023-05-09T11:57:50;17.90;95.00
5164;DHT22;2601;50.224;10.126;2023-05-09T12:00:23;17.90;95.00
5164;DHT22;2601;50.224;10.126;2023-05-09T12:02:49;17.90;95.00
5164;DHT22;2601;50.224;10.126;2023-05-09T12:05:17;17.90;95.00
5164;DHT22;2601;50.224;10.126;2023-05-09T12:07:43;17.90;95.00
5164;DHT22;2601;50.224;10.126;2023-05-09T12:10:12;17.90;95.00
5164;DHT22;2601;50.224;10.126;2023-05-09T12:12:44;17.90;95.00
5164;DHT22;2601;50.224;10.126;2023-05-09T12:15:10;17.90;95.00
5164;DHT22;2601;50.224;10.126;2023-05-09T12:17:38;17.90;95.00
5164;DHT22;2601;50.224;10.126;2023-05-09T12:20:04;17.90;94.90
5164;DHT22;2601;50.224;10.126;2023-05-09T12:22:30;17.90;94.90
5164;DHT22;2601;50.224;10.126;2023-05-09T12:24:58;17.80;94.80
5164;DHT22;2601;50.224;10.126;2023-05-09T12:27:24;17.90;94.90
5164;DHT22;2601;50.224;10.126;2023-05-09T12:29:51;17.80;94.90
5164;DHT22;2601;50.224;10.126;2023-05-09T12:32:17;17.90;94.90
5164;DHT22;2601;50.224;10.126;2023-05-09T12:34:43;17.80;94.80
5164;DHT22;2601;50.224;10.126;2023-05-09T12:37:17;17.90;94.90
5164;DHT22;2601;50.224;10.126;2023-05-09T12:40:03;17.90;95.20
5164;DHT22;2601;50.224;10.126;2023-05-09T12:42:31;17.80;94.80
5164;DHT22;2601;50.224;10.126;2023-05-09T12:44:57;17.90;94.80
5164;DHT22;2601;50.224;10.126;2023-05-09T12:47:26;17.90;94.80
5164;DHT22;2601;50.224;10.126;2023-05-09T12:49:59;17.90;94.90
5164;DHT22;2601;50.224;10.126;2023-05-09T12:52:32;17.90;94.80
5164;DHT22;2601;50.224;10.126;2023-05-09T12:55:06;17.90;94.80
5164;DHT22;2601;50.224;10.126;2023-05-09T12:57:32;17.90;94.80
5164;DHT22;2601;50.224;10.126;2023-05-09T13:00:00;17.90;94.80
5164;DHT22;2601;50.224;10.126;2023-05-09T13:02:26;17.90;94.80
5164;DHT22;2601;50.224;10.126;2023-05-09T13:05:12;17.80;94.80
5164;DHT22;2601;50.224;10.126;2023-05-09T13:07:50;17.90;94.80
5164;DHT22;2601;50.224;10.126;2023-05-09T13:10:23;17.90;94.80
5164;DHT22;2601;50.224;10.126;2023-05-09T13:12:50;17.90;94.80
5164;DHT22;2601;50.224;10.126;2023-05-09T13:15:18;17.90;94.80
5164;DHT22;2601;50.224;10.126;2023-05-09T13:17:48;17.90;94.80
5164;DHT22;2601;50.224;10.126;2023-05-09T13:20:14;17.90;94.80
5164;DHT22;2601;50.224;10.126;2023-05-09T13:22:40;17.90;94.80
5164;DHT22;2601;50.224;10.126;2023-05-09T13:25:07;17.90;94.80
5164;DHT22;2601;50.224;10.126;2023-05-09T13:27:33;17.90;94.70
5164;DHT22;2601;50.224;10.126;2023-05-09T13:29:59;17.90;94.80
5164;DHT22;2601;50.224;10.126;2023-05-09T13:32:25;17.90;94.70
5164;DHT22;2601;50.224;10.126;2023-05-09T13:34:51;17.90;94.70
5164;DHT22;2601;50.224;10.126;2023-05-09T13:37:17;17.90;94.80
5164;DHT22;2601;50.224;10.126;2023-05-09T13:39:42;17.90;94.80
5164;DHT22;2601;50.224;10.126;2023-05-09T13:42:08;17.90;94.70
5164;DHT22;2601;50.224;10.126;2023-05-09T13:44:33;17.90;94.80
5164;DHT22;2601;50.224;10.126;2023-05-09T13:46:59;17.90;94.80
5164;DHT22;2601;50.224;10.126;2023-05-09T13:49:25;17.90;94.80
5164;DHT22;2601;50.224;10.126;2023-05-09T13:51:54;17.90;94.60
5164;DHT22;2601;50.224;10.126;2023-05-09T13:54:20;17.90;94.70
5164;DHT22;2601;50.224;10.126;2023-05-09T13:56:47;17.90;94.70
5164;DHT22;2601;50.224;10.126;2023-05-09T13:59:13;17.90;94.60
5164;DHT22;2601;50.224;10.126;2023-05-09T14:01:39;17.90;94.70
5164;DHT22;2601;50.224;10.126;2023-05-09T14:04:04;17.90;94.70
5164;DHT22;2601;50.224;10.126;2023-05-09T14:06:30;17.90;94.70
5164;DHT22;2601;50.224;10.126;2023-05-09T14:08:56;17.90;94.70
5164;DHT22;2601;50.224;10.126;2023-05-09T14:11:21;17.90;94.70
5164;DHT22;2601;50.224;10.126;2023-05-09T14:13:47;17.90;94.60
5164;DHT22;2601;50.224;10.126;2023-05-09T14:16:13;17.90;94.70
5164;DHT22;2601;50.224;10.126;2023-05-09T14:18:38;17.90;94.70
5164;DHT22;2601;50.224;10.126;2023-05-09T14:21:05;17.90;94.70
5164;DHT22;2601;50.224;10.126;2023-05-09T14:23:30;17.90;94.70
5164;DHT22;2601;50.224;10.126;2023-05-09T14:25:56;17.90;94.70
5164;DHT22;2601;50.224;10.126;2023-05-09T14:28:22;17.90;94.60
5164;DHT22;2601;50.224;10.126;2023-05-09T14:30:48;17.90;94.70
5164;DHT22;2601;50.224;10.126;2023-05-09T14:33:14;17.90;94.70
5164;DHT22;2601;50.224;10.126;2023-05-09T14:35:39;17.90;94.70
5164;DHT22;2601;50.224;10.126;2023-05-09T14:38:05;17.90;94.70
5164;DHT22;2601;50.224;10.126;2023-05-09T14:40:31;17.90;94.70
5164;DHT22;2601;50.224;10.126;2023-05-09T14:43:00;17.90;94.70
5164;DHT22;2601;50.224;10.126;2023-05-09T14:45:29;17.90;94.70
5164;DHT22;2601;50.224;10.126;2023-05-09T14:47:56;17.90;94.70
5164;DHT22;2601;50.224;10.126;2023-05-09T14:50:22;17.90;94.60
5164;DHT22;2601;50.224;10.126;2023-05-09T14:52:48;17.90;94.60
5164;DHT22;2601;50.224;10.126;2023-05-09T14:55:18;17.90;94.80
5164;DHT22;2601;50.224;10.126;2023-05-09T14:57:44;17.90;94.70
5164;DHT22;2601;50.224;10.126;2023-05-09T15:00:10;17.90;94.70
5164;DHT22;2601;50.224;10.126;2023-05-09T15:02:36;17.90;94.70
5164;DHT22;2601;50.224;10.126;2023-05-09T15:05:02;17.90;94.70
5164;DHT22;2601;50.224;10.126;2023-05-09T15:07:28;17.90;94.70
5164;DHT22;2601;50.224;10.126;2023-05-09T15:09:54;17.90;94.70
5164;DHT22;2601;50.224;10.126;2023-05-09T15:12:19;17.90;94.70
5164;DHT22;2601;50.224;10.126;2023-05-09T15:14:45;17.90;94.70
5164;DHT22;2601;50.224;10.126;2023-05-09T15:17:11;17.90;94.70
5164;DHT22;2601;50.224;10.126;2023-05-09T15:19:37;17.90;94.70
5164;DHT22;2601;50.224;10.126;2023-05-09T15:22:02;17.90;94.70
5164;DHT22;2601;50.224;10.126;2023-05-09T15:24:30;17.90;94.70
5164;DHT22;2601;50.224;10.126;2023-05-09T15:26:56;17.90;94.70
5164;DHT22;2601;50.224;10.126;2023-05-09T15:29:21;17.90;94.70
5164;DHT22;2601;50.224;10.126;2023-05-09T15:31:47;17.90;94.70
5164;DHT22;2601;50.224;10.126;2023-05-09T15:34:13;17.90;94.70
5164;DHT22;2601;50.224;10.126;2023-05-09T15:36:39;17.90;94.70
5164;DHT22;2601;50.224;10.126;2023-05-09T15:39:05;17.90;94.70
5164;DHT22;2601;50.224;10.126;2023-05-09T15:41:30;17.90;94.70
5164;DHT22;2601;50.224;10.126;2023-05-09T15:43:56;17.90;94.70
5164;DHT22;2601;50.224;10.126;2023-05-09T15:46:22;17.90;94.70
5164;DHT22;2601;50.224;10.126;2023-05-09T15:48:48;17.90;94.70
5164;DHT22;2601;50.224;10.126;2023-05-09T15:51:14;17.90;94.70
5164;DHT22;2601;50.224;10.126;2023-05-09T15:53:39;17.90;94.70
5164;DHT22;2601;50.224;10.126;2023-05-09T15:56:06;17.90;94.60
5164;DHT22;2601;50.224;10.126;2023-05-09T15:58:32;17.90;94.60
5164;DHT22;2601;50.224;10.126;2023-05-09T16:00:57;17.90;94.60